Time;durP1;ratioP1;P1;durP2;ratioP2;P2;SDS_P1;SDS_P2;PMS_P1;PMS_P2;Temp;Humidity;BMP_temperature;BMP_pressure;BME280_temperature;BME280_humidity;BME280_pressure;Samples;Min_cycle;Max_cycle;Signal;HPM_P1;HPM_P2
2022/03/02 00:02:11;;;;;;;;;;;;;;;4.61;93.11;102801.22;4972153;28;19923;-78
2022/03/02 00:04:36;;;;;;;;;;;;;;;4.61;93.63;102811.63;4988214;28;19921;-78
2022/03/02 00:07:02;;;;;;;;;;;;;;;4.61;93.69;102806.41;4986216;28;20451;-77
2022/03/02 00:09:29;;;;;;;;;;;;;;;4.59;94.00;102806.38;4986809;28;19933;-81
2022/03/02 00:11:54;;;;;;;;;;;;;;;4.62;94.44;102805.56;4987459;28;19918;-74
2022/03/02 00:14:19;;;;;;;;;;;;;;;4.72;93.95;102803.91;4986041;28;19961;-78
2022/03/02 00:16:45;;;;;;;;;;;;;;;4.63;94.89;102808.16;4988529;28;20027;-75
2022/03/02 00:19:10;;;;;;;;;;;;;;;4.60;94.54;102813.34;4985593;28;19922;-75
2022/03/02 00:21:35;;;;;;;;;;;;;;;4.58;94.88;102816.78;4984921;28;20640;-77
2022/03/02 00:24:03;;;;;;;;;;;;;;;4.53;95.44;102811.53;4986745;28;19918;-77
2022/03/02 00:26:29;;;;;;;;;;;;;;;4.51;95.59;102812.38;4989040;28;20321;-76
2022/03/02 00:28:55;;;;;;;;;;;;;;;4.58;95.84;102814.19;4991184;28;19952;-76
2022/03/02 00:31:20;;;;;;;;;;;;;;;4.54;95.48;102812.41;4987993;28;20009;-78
2022/03/02 00:33:45;;;;;;;;;;;;;;;4.58;95.23;102814.19;4983813;28;19965;-77
2022/03/02 00:36:11;;;;;;;;;;;;;;;4.61;94.98;102809.03;4985907;28;20009;-77
2022/03/02 00:38:36;;;;;;;;;;;;;;;4.57;95.05;102802.91;4979658;28;20745;-76
2022/03/02 00:41:01;;;;;;;;;;;;;;;4.56;95.47;102805.47;4987274;28;19930;-77
2022/03/02 00:43:26;;;;;;;;;;;;;;;4.54;95.60;102797.66;4985845;28;20306;-76
2022/03/02 00:45:52;;;;;;;;;;;;;;;4.59;95.21;102795.97;4990020;28;19922;-77
2022/03/02 00:48:17;;;;;;;;;;;;;;;4.56;95.48;102792.47;4990245;28;20343;-86
2022/03/02 00:50:43;;;;;;;;;;;;;;;4.63;95.65;102786.47;4994068;28;19972;-83
2022/03/02 00:53:08;;;;;;;;;;;;;;;4.58;95.49;102790.75;4993093;28;19948;-84
2022/03/02 00:55:35;;;;;;;;;;;;;;;4.57;95.87;102791.63;4994129;28;19918;-86
2022/03/02 00:58:00;;;;;;;;;;;;;;;4.56;94.85;102784.66;4984439;28;19926;-74
2022/03/02 01:00:26;;;;;;;;;;;;;;;4.54;95.64;102786.38;4989972;28;20371;-72
2022/03/02 01:02:51;;;;;;;;;;;;;;;4.56;95.37;102785.56;4992048;28;19944;-74
2022/03/02 01:05:17;;;;;;;;;;;;;;;4.53;95.51;102790.72;4987546;28;20626;-75
2022/03/02 01:07:42;;;;;;;;;;;;;;;4.55;96.04;102790.72;4971667;28;19922;-76
2022/03/02 01:10:08;;;;;;;;;;;;;;;4.55;95.52;102789.00;4973627;28;19926;-77
2022/03/02 01:12:33;;;;;;;;;;;;;;;4.54;95.54;102786.38;5003820;28;21320;-77
2022/03/02 01:14:58;;;;;;;;;;;;;;;4.54;96.16;102788.97;4991216;28;20742;-76
2022/03/02 01:17:24;;;;;;;;;;;;;;;4.55;95.47;102785.50;4987902;28;19922;-76
2022/03/02 01:19:49;;;;;;;;;;;;;;;4.55;96.09;102777.69;4980892;28;19925;-76
2022/03/02 01:22:15;;;;;;;;;;;;;;;4.52;95.73;102785.50;4997851;28;19926;-75
2022/03/02 01:24:40;;;;;;;;;;;;;;;4.53;96.33;102774.22;4988724;28;19922;-77
2022/03/02 01:27:06;;;;;;;;;;;;;;;4.51;96.06;102792.44;4987567;28;20323;-77
2022/03/02 01:29:33;;;;;;;;;;;;;;;4.55;96.39;102780.31;4989088;28;20258;-79
2022/03/02 01:31:59;;;;;;;;;;;;;;;4.52;96.20;102782.91;4983829;28;20379;-79
2022/03/02 01:34:24;;;;;;;;;;;;;;;4.55;96.04;102777.69;4988838;28;19949;-80
2022/03/02 01:36:49;;;;;;;;;;;;;;;4.51;96.14;102779.41;4993746;28;19921;-85
2022/03/02 01:39:15;;;;;;;;;;;;;;;4.53;95.55;102776.81;4989842;28;19930;-79
2022/03/02 01:41:40;;;;;;;;;;;;;;;4.59;95.64;102769.06;4986809;28;20312;-79
2022/03/02 01:44:05;;;;;;;;;;;;;;;4.61;95.80;102769.97;4986274;28;19929;-78
2022/03/02 01:46:31;;;;;;;;;;;;;;;4.51;95.54;102771.59;4978253;28;19918;-80
2022/03/02 01:48:56;;;;;;;;;;;;;;;4.53;95.90;102759.47;4988595;28;19924;-81
2022/03/02 01:51:22;;;;;;;;;;;;;;;4.52;95.70;102759.47;4988463;28;19921;-76
2022/03/02 01:53:48;;;;;;;;;;;;;;;4.50;96.09;102764.66;4982581;28;19963;-75
2022/03/02 01:56:13;;;;;;;;;;;;;;;4.60;95.48;102755.22;4988263;28;19922;-76
2022/03/02 01:58:39;;;;;;;;;;;;;;;4.53;95.72;102756.88;4979488;28;19953;-76
2022/03/02 02:01:05;;;;;;;;;;;;;;;4.59;95.77;102749.09;4973131;28;20377;-77
2022/03/02 02:03:30;;;;;;;;;;;;;;;4.58;95.82;102755.16;4985762;28;19922;-75
2022/03/02 02:05:55;;;;;;;;;;;;;;;4.59;95.70;102743.03;4979803;28;20519;-81
2022/03/02 02:08:21;;;;;;;;;;;;;;;4.58;95.31;102749.97;4981307;28;19922;-78
2022/03/02 02:10:46;;;;;;;;;;;;;;;4.52;95.69;102744.72;4977761;28;20012;-77
2022/03/02 02:13:12;;;;;;;;;;;;;;;4.52;95.00;102744.72;4972236;28;19926;-73
2022/03/02 02:15:37;;;;;;;;;;;;;;;4.48;95.25;102738.63;5020952;28;20401;-75
2022/03/02 02:18:03;;;;;;;;;;;;;;;4.49;95.16;102739.47;4987121;28;19941;-73
2022/03/02 02:20:28;;;;;;;;;;;;;;;4.53;95.06;102732.56;4993618;28;19932;-75
2022/03/02 02:22:53;;;;;;;;;;;;;;;4.54;95.16;102726.50;4992743;28;19926;-75
2022/03/02 02:25:19;;;;;;;;;;;;;;;4.47;94.94;102729.06;4989224;28;19922;-78
2022/03/02 02:27:46;;;;;;;;;;;;;;;4.48;95.33;102725.59;4982375;28;19929;-77
2022/03/02 02:30:13;;;;;;;;;;;;;;;4.48;95.26;102716.91;4983701;28;19968;-73
2022/03/02 02:32:39;;;;;;;;;;;;;;;4.52;95.06;102731.69;4967656;28;19941;-73
2022/03/02 02:35:05;;;;;;;;;;;;;;;4.48;95.04;102724.72;4973896;28;19918;-75
2022/03/02 02:37:32;;;;;;;;;;;;;;;4.49;95.18;102721.25;4987043;28;19922;-73
2022/03/02 02:39:59;;;;;;;;;;;;;;;4.48;94.89;102719.50;4985339;28;19926;-72
2022/03/02 02:42:25;;;;;;;;;;;;;;;4.46;95.07;102706.50;4999319;28;19926;-75
2022/03/02 02:44:50;;;;;;;;;;;;;;;4.42;95.82;102704.72;4981542;28;19922;-74
2022/03/02 02:47:15;;;;;;;;;;;;;;;4.42;95.55;102706.44;4967549;28;19976;-74
2022/03/02 02:49:41;;;;;;;;;;;;;;;4.42;95.89;102709.91;4959866;28;19933;-76
2022/03/02 02:52:06;;;;;;;;;;;;;;;4.42;95.88;102709.91;4963172;28;19918;-76
2022/03/02 02:54:32;;;;;;;;;;;;;;;4.42;95.89;102704.72;5008458;28;19949;-76
2022/03/02 02:56:57;;;;;;;;;;;;;;;4.45;95.49;102698.69;4970160;28;19929;-77
2022/03/02 02:59:24;;;;;;;;;;;;;;;4.47;95.19;102697.81;4963433;28;19954;-73
2022/03/02 03:01:49;;;;;;;;;;;;;;;4.41;95.71;102699.50;4969287;28;20230;-77
2022/03/02 03:04:14;;;;;;;;;;;;;;;4.46;95.37;102693.47;4978112;28;19922;-78
2022/03/02 03:06:40;;;;;;;;;;;;;;;4.43;95.15;102685.63;4986513;28;19957;-74
2022/03/02 03:09:05;;;;;;;;;;;;;;;4.42;94.85;102683.03;4988295;28;19922;-73
2022/03/02 03:11:32;;;;;;;;;;;;;;;4.44;95.20;102681.31;4981209;28;19918;-75
2022/03/02 03:13:58;;;;;;;;;;;;;;;4.39;95.31;102676.06;5007209;28;19926;-77
2022/03/02 03:16:23;;;;;;;;;;;;;;;4.40;95.53;102684.75;4980077;28;20389;-77
2022/03/02 03:18:48;;;;;;;;;;;;;;;4.42;95.19;102678.69;4987355;28;19918;-75
2022/03/02 03:21:13;;;;;;;;;;;;;;;4.44;95.31;102681.31;4990281;28;20468;-76
2022/03/02 03:23:39;;;;;;;;;;;;;;;4.40;95.82;102677.81;4982874;28;19953;-76
2022/03/02 03:26:04;;;;;;;;;;;;;;;4.36;95.41;102670.84;4984892;28;19918;-76
2022/03/02 03:28:29;;;;;;;;;;;;;;;4.35;95.51;102671.69;4989488;28;19917;-75
2022/03/02 03:30:55;;;;;;;;;;;;;;;4.39;95.50;102676.06;4988326;28;19972;-76
2022/03/02 03:33:21;;;;;;;;;;;;;;;4.41;95.23;102673.47;4988346;28;20008;-76
2022/03/02 03:35:46;;;;;;;;;;;;;;;4.44;95.36;102660.50;4987222;28;19918;-74
2022/03/02 03:38:11;;;;;;;;;;;;;;;4.46;95.41;102664.00;4986921;28;19922;-74
2022/03/02 03:40:37;;;;;;;;;;;;;;;4.40;95.73;102667.41;4987672;28;19929;-76
2022/03/02 03:43:02;;;;;;;;;;;;;;;4.45;95.28;102663.09;4989616;28;19924;-76
2022/03/02 03:45:27;;;;;;;;;;;;;;;4.44;95.49;102665.69;4986938;28;20339;-76
2022/03/02 03:47:53;;;;;;;;;;;;;;;4.42;95.93;102657.88;4990122;28;20407;-76
2022/03/02 03:50:19;;;;;;;;;;;;;;;4.39;95.37;102657.84;4989550;28;20005;-76
2022/03/02 03:52:44;;;;;;;;;;;;;;;4.41;95.19;102657.84;4989672;28;19945;-76
2022/03/02 03:55:10;;;;;;;;;;;;;;;4.40;95.58;102662.22;4989672;28;19922;-75
2022/03/02 03:57:36;;;;;;;;;;;;;;;4.40;95.28;102658.72;4989053;28;19969;-75
2022/03/02 04:00:03;;;;;;;;;;;;;;;4.30;95.27;102658.63;5005381;28;20348;-75
2022/03/02 04:02:28;;;;;;;;;;;;;;;4.33;95.52;102655.19;4983869;28;19926;-75
2022/03/02 04:04:53;;;;;;;;;;;;;;;4.26;95.36;102653.41;4977738;28;19917;-76
2022/03/02 04:07:19;;;;;;;;;;;;;;;4.30;95.86;102652.59;5000027;28;20658;-75
2022/03/02 04:09:44;;;;;;;;;;;;;;;4.22;95.72;102647.31;4978217;28;19975;-75
2022/03/02 04:12:09;;;;;;;;;;;;;;;4.27;95.89;102652.53;4985658;28;20309;-76
2022/03/02 04:14:34;;;;;;;;;;;;;;;4.27;96.27;102652.53;4983231;28;20293;-76
2022/03/02 04:17:00;;;;;;;;;;;;;;;4.26;95.55;102645.59;4984712;28;19917;-75
2022/03/02 04:19:28;;;;;;;;;;;;;;;4.26;95.34;102643.84;4999018;28;19918;-76
2022/03/02 04:21:53;;;;;;;;;;;;;;;4.24;95.67;102643.00;4991978;28;20303;-76
2022/03/02 04:24:19;;;;;;;;;;;;;;;4.25;95.36;102629.09;4992915;28;19918;-78
2022/03/02 04:26:44;;;;;;;;;;;;;;;4.25;95.56;102636.03;4986823;28;19973;-74
2022/03/02 04:29:10;;;;;;;;;;;;;;;4.27;95.34;102644.75;4985184;28;20042;-76
2022/03/02 04:31:35;;;;;;;;;;;;;;;4.25;95.94;102634.28;4988896;28;19917;-76
2022/03/02 04:34:00;;;;;;;;;;;;;;;4.22;95.44;102631.69;4983532;28;19925;-75
2022/03/02 04:36:26;;;;;;;;;;;;;;;4.22;95.84;102630.81;4985970;28;19922;-76
2022/03/02 04:38:51;;;;;;;;;;;;;;;4.24;95.84;102623.88;4974851;28;19930;-75
2022/03/02 04:41:16;;;;;;;;;;;;;;;4.22;95.61;102625.59;4976296;28;20651;-76
2022/03/02 04:43:43;;;;;;;;;;;;;;;4.22;95.64;102626.50;4978199;28;19946;-75
2022/03/02 04:46:08;;;;;;;;;;;;;;;4.22;95.85;102625.59;4970692;28;19929;-76
2022/03/02 04:48:34;;;;;;;;;;;;;;;4.26;95.58;102624.78;4970316;28;19922;-75
2022/03/02 04:50:59;;;;;;;;;;;;;;;4.22;95.43;102628.19;4991651;28;19918;-76
2022/03/02 04:53:24;;;;;;;;;;;;;;;4.21;95.19;102622.13;4992516;28;19918;-76
2022/03/02 04:55:50;;;;;;;;;;;;;;;4.23;95.01;102624.75;4992198;28;19926;-77
2022/03/02 04:58:16;;;;;;;;;;;;;;;4.21;95.43;102618.66;4992706;28;20134;-75
2022/03/02 05:00:41;;;;;;;;;;;;;;;4.23;95.39;102616.94;4992629;28;19953;-75
2022/03/02 05:03:06;;;;;;;;;;;;;;;4.20;95.99;102619.50;4991912;28;19918;-76
2022/03/02 05:05:33;;;;;;;;;;;;;;;4.20;95.04;102606.50;4995883;28;19922;-75
2022/03/02 05:07:58;;;;;;;;;;;;;;;4.17;95.30;102608.25;5014461;28;19944;-76
2022/03/02 05:10:24;;;;;;;;;;;;;;;4.20;95.24;102609.09;4984144;28;20246;-75
2022/03/02 05:12:50;;;;;;;;;;;;;;;4.25;95.25;102603.06;4982298;28;19969;-76
2022/03/02 05:15:16;;;;;;;;;;;;;;;4.23;94.88;102599.63;4984134;28;19926;-76
2022/03/02 05:17:42;;;;;;;;;;;;;;;4.18;94.51;102593.50;4991060;28;19922;-76
2022/03/02 05:20:08;;;;;;;;;;;;;;;4.32;93.85;102593.59;4984733;28;19918;-75
2022/03/02 05:22:34;;;;;;;;;;;;;;;4.33;92.52;102590.13;4993371;28;19921;-76
2022/03/02 05:24:59;;;;;;;;;;;;;;;4.35;93.13;102588.41;4992103;28;19928;-75
2022/03/02 05:27:24;;;;;;;;;;;;;;;4.47;92.64;102592.81;4979469;28;20447;-75
2022/03/02 05:29:50;;;;;;;;;;;;;;;4.40;92.11;102598.84;4990666;28;19948;-75
2022/03/02 05:32:15;;;;;;;;;;;;;;;4.35;92.53;102590.16;4989971;28;19964;-75
2022/03/02 05:34:40;;;;;;;;;;;;;;;4.32;92.22;102589.28;4989922;28;19918;-76
2022/03/02 05:37:05;;;;;;;;;;;;;;;4.35;92.20;102593.63;4988774;28;20391;-76
2022/03/02 05:39:31;;;;;;;;;;;;;;;4.32;91.71;102581.47;4982009;28;19929;-76
2022/03/02 05:41:56;;;;;;;;;;;;;;;4.37;91.87;102588.41;4993981;28;19927;-76
2022/03/02 05:44:22;;;;;;;;;;;;;;;4.33;91.60;102584.94;5001744;28;19964;-77
2022/03/02 05:46:47;;;;;;;;;;;;;;;4.33;91.57;102584.94;5001890;28;19928;-76
2022/03/02 05:49:13;;;;;;;;;;;;;;;4.33;91.56;102584.94;4993338;28;19968;-77
2022/03/02 05:51:39;;;;;;;;;;;;;;;4.33;91.83;102579.72;4988978;28;20001;-75
2022/03/02 05:54:05;;;;;;;;;;;;;;;4.33;91.92;102580.63;4989793;28;19918;-75
2022/03/02 05:56:31;;;;;;;;;;;;;;;4.20;92.05;102590.88;4990448;28;19922;-75
2022/03/02 05:58:56;;;;;;;;;;;;;;;4.12;92.68;102599.50;4988491;28;19924;-75
2022/03/02 06:01:21;;;;;;;;;;;;;;;4.10;92.44;102590.81;4996520;28;19926;-75
2022/03/02 06:03:47;;;;;;;;;;;;;;;4.10;92.60;102602.97;4996357;28;19930;-76
2022/03/02 06:06:12;;;;;;;;;;;;;;;4.12;92.90;102596.91;4987934;28;19968;-74
2022/03/02 06:08:38;;;;;;;;;;;;;;;4.13;93.35;102593.44;4988159;28;20456;-76
2022/03/02 06:11:03;;;;;;;;;;;;;;;4.11;92.82;102596.91;4984502;28;20414;-76
2022/03/02 06:13:29;;;;;;;;;;;;;;;4.05;92.26;102602.03;4985585;28;20333;-76
2022/03/02 06:15:55;;;;;;;;;;;;;;;4.01;92.42;102599.44;4986694;28;19921;-75
2022/03/02 06:18:21;;;;;;;;;;;;;;;3.99;92.76;102602.84;4993207;28;19926;-74
2022/03/02 06:20:48;;;;;;;;;;;;;;;3.98;93.05;102606.31;4987357;28;19968;-75
2022/03/02 06:23:13;;;;;;;;;;;;;;;4.03;93.01;102604.63;4987342;28;19925;-75
2022/03/02 06:25:39;;;;;;;;;;;;;;;4.20;92.46;102602.19;4973732;28;19918;-77
2022/03/02 06:28:04;;;;;;;;;;;;;;;4.22;91.98;102602.19;5009707;28;19960;-77
2022/03/02 06:30:29;;;;;;;;;;;;;;;4.22;91.46;102600.47;4978627;28;19921;-75
2022/03/02 06:32:55;;;;;;;;;;;;;;;4.23;91.51;102606.53;4985970;28;20477;-74
2022/03/02 06:35:20;;;;;;;;;;;;;;;4.26;91.56;102603.97;4986904;28;19933;-75
2022/03/02 06:37:46;;;;;;;;;;;;;;;4.22;92.16;102613.47;5009910;28;20491;-75
2022/03/02 06:40:12;;;;;;;;;;;;;;;4.18;91.78;102611.69;4986118;28;19929;-73
2022/03/02 06:42:52;;;;;;;;;;;;;;;4.21;92.17;102614.34;4987600;28;20388;-73
2022/03/02 06:45:33;;;;;;;;;;;;;;;4.29;91.61;102612.66;4983851;28;20041;-75
2022/03/02 06:48:13;;;;;;;;;;;;;;;4.08;92.53;102618.53;4977369;28;20013;-76
2022/03/02 06:50:41;;;;;;;;;;;;;;;4.11;92.41;102622.91;4980681;28;19922;-74
2022/03/02 06:53:11;;;;;;;;;;;;;;;4.06;92.53;102620.28;4986665;28;19922;-75
2022/03/02 06:55:38;;;;;;;;;;;;;;;3.99;93.32;102621.06;5003708;28;20381;-75
2022/03/02 06:58:07;;;;;;;;;;;;;;;3.90;93.46;102621.84;4981999;28;20468;-76
2022/03/02 07:00:32;;;;;;;;;;;;;;;3.81;93.50;102617.44;4984267;28;19925;-76
2022/03/02 07:03:17;;;;;;;;;;;;;;;3.92;93.82;102622.72;4986206;28;19925;-75
2022/03/02 07:05:42;;;;;;;;;;;;;;;3.96;93.38;102611.50;5006779;28;19918;-77
2022/03/02 07:08:08;;;;;;;;;;;;;;;3.89;93.42;102619.22;4990989;28;19940;-77
2022/03/02 07:10:34;;;;;;;;;;;;;;;3.78;94.16;102617.38;4992115;28;19925;-77
2022/03/02 07:13:01;;;;;;;;;;;;;;;3.81;94.45;102616.53;4991178;28;19957;-75
2022/03/02 07:15:27;;;;;;;;;;;;;;;3.86;93.90;102614.88;4986814;28;19929;-77
2022/03/02 07:17:52;;;;;;;;;;;;;;;3.86;94.05;102620.06;4987054;28;19918;-77
2022/03/02 07:20:17;;;;;;;;;;;;;;;3.85;93.34;102613.13;4983788;28;20396;-77
2022/03/02 07:22:45;;;;;;;;;;;;;;;3.75;94.32;102626.88;4986272;28;19997;-79
2022/03/02 07:25:16;;;;;;;;;;;;;;;3.78;94.42;102622.59;4990843;28;19960;-79
2022/03/02 07:27:42;;;;;;;;;;;;;;;3.82;94.35;102624.38;4992568;28;19918;-75
2022/03/02 07:30:08;;;;;;;;;;;;;;;3.85;93.72;102621.81;4986225;28;19924;-78
2022/03/02 07:32:36;;;;;;;;;;;;;;;3.96;93.83;102627.09;4990464;28;19926;-78
2022/03/02 07:35:04;;;;;;;;;;;;;;;3.93;93.93;102628.81;5004835;28;19917;-79
2022/03/02 07:37:29;;;;;;;;;;;;;;;3.98;92.80;102628.00;5005184;28;20377;-77
2022/03/02 07:39:55;;;;;;;;;;;;;;;4.03;93.04;102631.50;4993704;28;19930;-77
2022/03/02 07:42:20;;;;;;;;;;;;;;;3.95;93.15;102634.91;4992523;28;19988;-75
2022/03/02 07:44:46;;;;;;;;;;;;;;;4.00;93.67;102634.09;4978098;28;19926;-75
2022/03/02 07:47:12;;;;;;;;;;;;;;;4.02;93.28;102631.50;4989188;28;19964;-77
2022/03/02 07:49:37;;;;;;;;;;;;;;;4.11;92.85;102636.78;4983653;28;19925;-78
2022/03/02 07:52:05;;;;;;;;;;;;;;;4.10;92.43;102640.22;4977610;28;20354;-78
2022/03/02 07:54:34;;;;;;;;;;;;;;;4.06;92.83;102637.59;4976606;28;19929;-76
2022/03/02 07:57:00;;;;;;;;;;;;;;;4.20;92.31;102630.78;5002377;28;19964;-76
2022/03/02 07:59:25;;;;;;;;;;;;;;;4.16;92.59;102637.72;4993223;28;19926;-77
2022/03/02 08:01:53;;;;;;;;;;;;;;;4.37;91.13;102628.34;4993813;28;19926;-77
2022/03/02 08:04:20;;;;;;;;;;;;;;;4.32;91.00;102624.81;4980674;28;19918;-77
2022/03/02 08:06:47;;;;;;;;;;;;;;;4.35;91.33;102630.06;4995343;28;20277;-77
2022/03/02 08:09:13;;;;;;;;;;;;;;;4.35;91.26;102627.44;4991519;28;20293;-77
2022/03/02 08:11:38;;;;;;;;;;;;;;;4.55;90.90;102629.34;4991013;28;19924;-77
2022/03/02 08:14:04;;;;;;;;;;;;;;;4.59;90.11;102637.16;4984659;28;20344;-78
2022/03/02 08:16:31;;;;;;;;;;;;;;;4.75;89.16;102627.72;4999107;28;19924;-78
2022/03/02 08:18:57;;;;;;;;;;;;;;;4.81;88.43;102634.72;4985689;28;20013;-77
2022/03/02 08:21:23;;;;;;;;;;;;;;;4.85;88.84;102630.41;4991531;28;19922;-77
2022/03/02 08:23:49;;;;;;;;;;;;;;;4.92;88.21;102620.03;4994411;28;19922;-76
2022/03/02 08:26:18;;;;;;;;;;;;;;;4.90;87.56;102624.38;4983144;28;20094;-78
2022/03/02 08:28:44;;;;;;;;;;;;;;;5.01;87.23;102605.34;4989397;28;20000;-77
2022/03/02 08:31:10;;;;;;;;;;;;;;;4.95;87.32;102617.44;4989386;28;20009;-74
2022/03/02 08:33:36;;;;;;;;;;;;;;;5.03;86.67;102612.28;4990100;28;19976;-74
2022/03/02 08:36:02;;;;;;;;;;;;;;;5.06;85.31;102604.50;4992573;28;19925;-76
2022/03/02 08:38:27;;;;;;;;;;;;;;;5.31;85.48;102607.19;5002965;28;20179;-79
2022/03/02 08:40:53;;;;;;;;;;;;;;;6.12;83.20;102594.34;4989101;28;20389;-78
2022/03/02 08:43:18;;;;;;;;;;;;;;;8.09;77.39;102555.19;4998503;28;19929;-75
2022/03/02 08:45:59;;;;;;;;;;;;;;;8.87;70.12;102518.63;4993366;28;20410;-74
2022/03/02 08:48:24;;;;;;;;;;;;;;;9.36;67.54;102501.34;4970278;28;19941;-76
2022/03/02 08:50:50;;;;;;;;;;;;;;;9.65;65.90;102496.53;4972134;28;19922;-75
2022/03/02 08:53:16;;;;;;;;;;;;;;;10.16;63.65;102493.03;4981132;28;20021;-75
2022/03/02 08:55:43;;;;;;;;;;;;;;;10.52;62.75;102482.75;4991722;28;19921;-75
2022/03/02 08:58:08;;;;;;;;;;;;;;;10.58;61.32;102542.22;4991477;28;19929;-77
2022/03/02 09:00:34;;;;;;;;;;;;;;;11.12;59.74;102559.53;4988893;28;19946;-74
2022/03/02 09:03:01;;;;;;;;;;;;;;;10.54;61.57;102572.94;4999135;28;19918;-75
2022/03/02 09:05:27;;;;;;;;;;;;;;;11.36;57.31;102571.28;4991990;28;20533;-76
2022/03/02 09:07:53;;;;;;;;;;;;;;;10.81;59.12;102575.91;4987121;28;19918;-75
2022/03/02 09:10:18;;;;;;;;;;;;;;;10.85;58.05;102568.84;4972127;28;19922;-77
2022/03/02 09:12:44;;;;;;;;;;;;;;;10.33;59.73;102575.03;4988836;28;19918;-75
2022/03/02 09:15:09;;;;;;;;;;;;;;;10.55;59.24;102573.78;4991449;28;19926;-76
2022/03/02 09:17:35;;;;;;;;;;;;;;;11.37;56.35;102556.34;4994975;28;20348;-77
2022/03/02 09:20:01;;;;;;;;;;;;;;;11.00;57.51;102555.38;4992913;28;19917;-75
2022/03/02 09:22:26;;;;;;;;;;;;;;;12.07;55.13;102559.09;4993780;28;19940;-75
2022/03/02 09:24:52;;;;;;;;;;;;;;;12.98;53.20;102566.31;4997606;28;19964;-74
2022/03/02 09:27:18;;;;;;;;;;;;;;;11.97;55.36;102575.13;4995228;28;20342;-74
2022/03/02 09:29:46;;;;;;;;;;;;;;;12.28;54.35;102571.75;4984530;28;20424;-75
2022/03/02 09:32:12;;;;;;;;;;;;;;;12.58;52.57;102563.91;4997915;28;19930;-75
2022/03/02 09:34:38;;;;;;;;;;;;;;;11.24;55.90;102569.78;4992101;28;19945;-75
2022/03/02 09:37:04;;;;;;;;;;;;;;;11.73;53.97;102565.19;4989211;28;20369;-76
2022/03/02 09:39:29;;;;;;;;;;;;;;;13.21;51.00;102548.06;4988351;28;19952;-75
2022/03/02 09:42:10;;;;;;;;;;;;;;;12.71;52.01;102554.78;4990340;28;20017;-74
2022/03/02 09:44:41;;;;;;;;;;;;;;;12.86;50.05;102547.34;4987985;28;19925;-75
2022/03/02 09:47:08;;;;;;;;;;;;;;;12.60;50.96;102543.66;4989734;28;19968;-76
2022/03/02 09:49:34;;;;;;;;;;;;;;;12.98;50.18;102552.25;4988718;28;19925;-77
2022/03/02 09:52:15;;;;;;;;;;;;;;;12.54;50.77;102557.88;4991131;28;19985;-78
2022/03/02 09:54:44;;;;;;;;;;;;;;;13.80;49.13;102565.59;5007548;28;19921;-76
2022/03/02 09:57:09;;;;;;;;;;;;;;;13.58;48.15;102561.03;4983073;28;19940;-73
2022/03/02 09:59:36;;;;;;;;;;;;;;;12.23;51.38;102578.94;4986995;28;19972;-74
2022/03/02 10:02:02;;;;;;;;;;;;;;;11.77;52.97;102573.88;4988740;28;20344;-74
2022/03/02 10:04:29;;;;;;;;;;;;;;;11.97;53.50;102575.13;4988988;28;20372;-75
2022/03/02 10:07:26;;;;;;;;;;;;;;;12.71;50.01;102562.69;4990062;28;19997;-75
2022/03/02 10:09:42;;;;;;;;;;;;;;;11.78;50.73;102558.91;4997839;28;19930;-75
2022/03/02 10:12:08;;;;;;;;;;;;;;;12.25;51.45;102569.19;4999678;28;20343;-75
2022/03/02 10:14:34;;;;;;;;;;;;;;;12.72;50.13;102550.38;4987551;28;19960;-75
2022/03/02 10:17:00;;;;;;;;;;;;;;;13.24;48.00;102545.31;4991523;28;19917;-77
2022/03/02 10:19:26;;;;;;;;;;;;;;;13.10;47.80;102549.25;4989182;28;19953;-74
2022/03/02 10:22:08;;;;;;;;;;;;;;;12.69;47.87;102551.31;4971221;28;20444;-74
2022/03/02 10:24:43;;;;;;;;;;;;;;;13.24;47.25;102545.31;4980295;28;20010;-73
2022/03/02 10:27:15;;;;;;;;;;;;;;;13.37;45.01;102549.31;4989005;28;20012;-76
2022/03/02 10:29:56;;;;;;;;;;;;;;;11.76;48.26;102557.19;4983303;28;20040;-76
2022/03/02 10:32:23;;;;;;;;;;;;;;;12.70;46.65;102550.41;4971706;28;19918;-75
2022/03/02 10:34:50;;;;;;;;;;;;;;;11.99;48.36;102553.16;4976018;28;19941;-75
2022/03/02 10:37:31;;;;;;;;;;;;;;;11.09;51.42;102559.59;5001530;28;19922;-75
2022/03/02 10:42:53;;;;;;;;;;;;;;;11.76;51.09;102557.19;4975370;28;19926;-75
2022/03/02 10:45:22;;;;;;;;;;;;;;;12.71;47.25;102536.31;4995459;28;19945;-77
2022/03/02 10:48:03;;;;;;;;;;;;;;;12.46;49.45;102544.03;4989337;28;19929;-76
2022/03/02 10:50:30;;;;;;;;;;;;;;;12.70;49.46;102545.13;4987904;28;20385;-76
2022/03/02 10:52:56;;;;;;;;;;;;;;;13.26;46.42;102530.28;4985830;28;19949;-76
2022/03/02 10:55:22;;;;;;;;;;;;;;;13.13;45.86;102521.91;4990150;28;19918;-76
2022/03/02 10:58:03;;;;;;;;;;;;;;;12.89;46.49;102526.16;4983070;28;19930;-75
2022/03/02 11:00:28;;;;;;;;;;;;;;;11.45;49.26;102530.75;4984688;28;19932;-75
2022/03/02 11:02:57;;;;;;;;;;;;;;;11.05;50.53;102542.13;4994135;28;19917;-76
2022/03/02 11:05:23;;;;;;;;;;;;;;;10.46;52.13;102549.44;4987998;28;20004;-75
2022/03/02 11:07:48;;;;;;;;;;;;;;;10.27;55.04;102548.84;4982992;28;20361;-75
2022/03/02 11:10:16;;;;;;;;;;;;;;;10.13;54.67;102548.25;5004281;28;20685;-75
2022/03/02 11:12:42;;;;;;;;;;;;;;;9.49;55.42;102546.63;4973485;28;19944;-75
2022/03/02 11:15:09;;;;;;;;;;;;;;;9.01;57.41;102543.78;4974557;28;20716;-76
2022/03/02 11:17:34;;;;;;;;;;;;;;;8.93;57.33;102543.91;4981190;28;19953;-74
2022/03/02 11:20:14;;;;;;;;;;;;;;;8.60;58.05;102540.78;4986861;28;19949;-75
2022/03/02 11:22:40;;;;;;;;;;;;;;;8.47;59.36;102555.72;4988539;28;19922;-74
2022/03/02 11:25:05;;;;;;;;;;;;;;;8.39;60.02;102545.31;5001757;28;19925;-76
2022/03/02 11:27:37;;;;;;;;;;;;;;;8.35;59.84;102546.25;4969189;28;19918;-76
2022/03/02 11:30:17;;;;;;;;;;;;;;;8.33;59.85;102542.75;4985804;28;20300;-74
2022/03/02 11:32:43;;;;;;;;;;;;;;;8.21;59.40;102538.53;4989032;28;19925;-74
2022/03/02 11:35:13;;;;;;;;;;;;;;;8.10;59.31;102543.00;4986653;28;20009;-73
2022/03/02 11:37:39;;;;;;;;;;;;;;;8.12;59.18;102533.34;4988377;28;19926;-72
2022/03/02 11:40:06;;;;;;;;;;;;;;;8.03;59.58;102529.09;4987514;28;19922;-76
2022/03/02 11:42:32;;;;;;;;;;;;;;;8.27;59.60;102533.22;4988594;28;19932;-75
2022/03/02 11:44:59;;;;;;;;;;;;;;;8.13;59.10;102522.88;4988390;28;19922;-74
2022/03/02 11:47:31;;;;;;;;;;;;;;;8.11;59.86;102508.94;5018630;28;19928;-76
2022/03/02 11:49:57;;;;;;;;;;;;;;;8.24;59.23;102511.44;4980667;28;19918;-77
2022/03/02 11:52:37;;;;;;;;;;;;;;;8.47;59.23;102509.47;4989362;28;19918;-76
2022/03/02 11:55:05;;;;;;;;;;;;;;;8.26;59.23;102507.91;4988701;28;20324;-75
2022/03/02 11:57:31;;;;;;;;;;;;;;;8.36;57.50;102501.69;4989041;28;20292;-75
2022/03/02 12:00:12;;;;;;;;;;;;;;;8.17;56.44;102494.91;4973236;28;20013;-75
2022/03/02 12:02:53;;;;;;;;;;;;;;;8.26;57.80;102504.44;4988151;28;19984;-75
2022/03/02 12:05:20;;;;;;;;;;;;;;;8.34;57.46;102492.97;4987932;28;19921;-78
2022/03/02 12:08:01;;;;;;;;;;;;;;;8.25;58.17;102484.38;4990439;28;19926;-76
2022/03/02 12:10:42;;;;;;;;;;;;;;;8.41;59.21;102485.06;4991761;28;19928;-76
2022/03/02 12:13:08;;;;;;;;;;;;;;;8.42;58.08;102474.56;4989789;28;19932;-76
2022/03/02 12:15:49;;;;;;;;;;;;;;;8.27;57.50;102475.59;4989909;28;19926;-74
2022/03/02 12:18:15;;;;;;;;;;;;;;;8.14;57.70;102471.38;4988454;28;19921;-75
2022/03/02 12:20:46;;;;;;;;;;;;;;;8.11;58.05;102479.25;4989300;28;19924;-75
2022/03/02 12:23:12;;;;;;;;;;;;;;;8.32;57.08;102468.56;4988219;28;19972;-74
2022/03/02 12:25:53;;;;;;;;;;;;;;;8.14;57.99;102468.75;4992055;28;19922;-75
2022/03/02 12:28:19;;;;;;;;;;;;;;;8.22;59.35;102469.53;4988019;28;19964;-74
2022/03/02 12:30:44;;;;;;;;;;;;;;;8.29;59.98;102470.34;4992634;28;20352;-76
2022/03/02 12:33:10;;;;;;;;;;;;;;;8.36;60.35;102462.41;4990104;28;19922;-75
2022/03/02 12:35:36;;;;;;;;;;;;;;;8.54;58.75;102462.25;4993378;28;19922;-78
2022/03/02 12:38:04;;;;;;;;;;;;;;;8.52;61.32;102470.13;5007607;28;19944;-79
2022/03/02 12:40:31;;;;;;;;;;;;;;;8.61;59.29;102459.53;4997736;28;19980;-79
2022/03/02 12:42:57;;;;;;;;;;;;;;;8.58;60.67;102458.72;4992463;28;19922;-76
2022/03/02 12:45:22;;;;;;;;;;;;;;;8.47;60.13;102448.31;4983748;28;19973;-76
2022/03/02 12:47:48;;;;;;;;;;;;;;;8.54;59.68;102441.28;4985582;28;20020;-75